Time;durP1;ratioP1;P1;durP2;ratioP2;P2;SDS_P1;SDS_P2;PMS_P1;PMS_P2;Temp;Humidity;BMP_temperature;BMP_pressure;BME280_temperature;BME280_humidity;BME280_pressure;Samples;Min_cycle;Max_cycle;Signal;HPM_P1;HPM_P2
2023/06/20 00:00:23;;;;;;;;;1.00;1.00;;;;;24.31;61.01;100441.81;2088241;28;45233;-50
2023/06/20 00:01:24;;;;;;;;;1.00;1.00;;;;;24.32;61.19;100443.53;2088530;28;45006;-54
2023/06/20 00:02:24;;;;;;;;;2.00;0.00;;;;;24.31;61.32;100444.53;2083204;28;47630;-52
2023/06/20 00:03:24;;;;;;;;;0.33;0.33;;;;;24.31;61.36;100446.38;2088479;28;46269;-53
2023/06/20 00:04:25;;;;;;;;;3.00;3.00;;;;;24.29;61.64;100446.47;2094151;28;45565;-52
2023/06/20 00:05:25;;;;;;;;;2.00;2.00;;;;;24.29;61.21;100446.47;2091463;28;45502;-54
2023/06/20 00:06:25;;;;;;;;;1.67;1.67;;;;;24.29;61.31;100454.63;2092465;28;46416;-50
2023/06/20 00:07:26;;;;;;;;;2.33;2.33;;;;;24.30;61.17;100450.09;2090010;28;45784;-52
2023/06/20 00:08:26;;;;;;;;;2.00;1.00;;;;;24.30;61.34;100447.38;2089449;28;45622;-52
2023/06/20 00:09:26;;;;;;;;;0.67;0.67;;;;;24.30;61.30;100450.09;2095683;28;46193;-51
2023/06/20 00:10:27;;;;;;;;;3.00;3.00;;;;;24.29;61.38;100456.47;2093031;28;45608;-52
2023/06/20 00:11:27;;;;;;;;;3.00;2.67;;;;;24.28;61.29;100452.03;2091549;28;46839;-53
2023/06/20 00:12:27;;;;;;;;;0.00;0.00;;;;;24.27;61.53;100445.75;2089661;28;46109;-52
2023/06/20 00:13:28;;;;;;;;;3.33;3.33;;;;;24.29;61.49;100451.91;2090960;28;46167;-51
2023/06/20 00:14:30;;;;;;;;;1.00;1.00;;;;;24.28;61.92;100452.91;2089216;28;47419;-54
2023/06/20 00:15:31;;;;;;;;;3.00;2.00;;;;;24.28;61.21;100450.19;2094316;28;46493;-53
2023/06/20 00:16:31;;;;;;;;;5.00;5.00;;;;;24.28;61.45;100441.19;2090275;28;45663;-53
2023/06/20 00:17:31;;;;;;;;;1.00;1.00;;;;;24.28;61.60;100447.47;2094891;28;46221;-53
2023/06/20 00:18:32;;;;;;;;;1.33;1.33;;;;;24.27;61.70;100448.47;2093092;28;46815;-53
2023/06/20 00:19:32;;;;;;;;;2.00;2.00;;;;;24.25;61.75;100442.28;2092002;28;46084;-52
2023/06/20 00:20:32;;;;;;;;;2.67;2.67;;;;;24.25;61.89;100439.56;2095396;28;45640;-54
2023/06/20 00:21:33;;;;;;;;;3.00;1.33;;;;;24.25;61.67;100442.28;2090443;28;45256;-54
2023/06/20 00:22:34;;;;;;;;;1.00;1.00;;;;;24.25;61.63;100442.28;2093733;28;45549;-54
2023/06/20 00:23:35;;;;;;;;;2.50;2.50;;;;;24.26;61.67;100441.28;2094317;28;45866;-50
2023/06/20 00:24:35;;;;;;;;;2.00;2.00;;;;;24.26;61.83;100437.72;2089158;28;46199;-53
2023/06/20 00:25:35;;;;;;;;;6.33;6.33;;;;;24.26;61.73;100433.16;2095308;28;46390;-51
2023/06/20 00:26:39;;;;;;;;;7.00;6.00;;;;;24.27;61.67;100436.75;2105739;27;45888;-52
2023/06/20 00:27:39;;;;;;;;;1.75;1.75;;;;;24.26;61.72;100435.00;2104313;28;46689;-49
2023/06/20 00:28:40;;;;;;;;;3.67;2.33;;;;;24.26;61.81;100438.56;2095355;28;46314;-50
2023/06/20 00:29:40;;;;;;;;;6.00;2.67;;;;;24.27;61.68;100436.75;2092412;28;46194;-51
2023/06/20 00:30:41;;;;;;;;;1.00;1.00;;;;;24.27;61.74;100434.91;2093683;28;45900;-51
2023/06/20 00:31:41;;;;;;;;;3.00;1.33;;;;;24.26;62.02;100427.72;2095010;28;46397;-51
2023/06/20 00:32:41;;;;;;;;;2.00;2.00;;;;;24.28;61.58;100433.06;2091741;28;45516;-53
2023/06/20 00:33:42;;;;;;;;;1.33;1.00;;;;;24.28;61.74;100435.78;2095960;28;46280;-52
2023/06/20 00:34:42;;;;;;;;;3.00;3.00;;;;;24.25;61.77;100434.16;2093491;28;45875;-52
2023/06/20 00:35:42;;;;;;;;;3.00;3.00;;;;;24.21;61.95;100431.84;2092790;28;46133;-52
2023/06/20 00:36:43;;;;;;;;;2.00;0.00;;;;;24.18;61.82;100432.94;2095720;28;46083;-53
2023/06/20 00:37:43;;;;;;;;;3.00;3.00;;;;;24.18;62.25;100429.38;2091061;28;45842;-52
2023/06/20 00:38:48;;;;;;;;;4.00;2.33;;;;;24.17;62.13;100428.53;2095969;28;45484;-53
2023/06/20 00:39:48;;;;;;;;;2.00;2.00;;;;;24.18;62.33;100434.81;2095492;28;46661;-53
2023/06/20 00:40:49;;;;;;;;;2.00;0.00;;;;;24.16;62.03;100434.94;2091787;28;45960;-54
2023/06/20 00:41:49;;;;;;;;;2.00;2.00;;;;;24.15;62.09;100433.22;2095873;28;48348;-53
2023/06/20 00:42:50;;;;;;;;;2.33;2.33;;;;;24.15;62.43;100446.78;2094495;28;46153;-53
2023/06/20 00:43:50;;;;;;;;;5.33;4.33;;;;;24.16;62.42;100445.78;2093197;28;45554;-55
2023/06/20 00:44:51;;;;;;;;;3.00;3.00;;;;;24.16;61.98;100434.94;2097442;28;46295;-53
2023/06/20 00:45:52;;;;;;;;;2.25;2.25;;;;;24.15;62.62;100438.63;2089598;28;46376;-52
2023/06/20 00:46:52;;;;;;;;;2.00;2.00;;;;;24.15;62.22;100430.50;2089259;28;46556;-50
2023/06/20 00:47:53;;;;;;;;;2.67;0.67;;;;;24.14;62.28;100436.03;2089579;28;45633;-51
2023/06/20 00:48:56;;;;;;;;;1.00;1.00;;;;;24.13;62.12;100437.00;2090187;28;45247;-53
2023/06/20 00:49:56;;;;;;;;;1.25;1.25;;;;;24.13;62.90;100439.72;2097889;28;45936;-51
2023/06/20 00:50:57;;;;;;;;;1.00;1.00;;;;;24.11;62.61;100434.44;2092812;28;46812;-53
2023/06/20 00:51:57;;;;;;;;;1.00;1.00;;;;;24.11;62.67;100442.56;2089575;28;45501;-52
2023/06/20 00:53:05;;;;;;;;;3.33;3.33;;;;;24.11;62.54;100436.28;2095298;28;47127;-52
2023/06/20 00:54:06;;;;;;;;;2.25;2.25;;;;;24.08;62.92;100432.84;2095274;28;46144;-53
2023/06/20 00:55:07;;;;;;;;;0.67;0.67;;;;;24.10;62.76;100426.44;2089288;28;46242;-54
2023/06/20 00:56:10;;;;;;;;;1.00;1.00;;;;;24.10;62.67;100426.44;2089655;28;45840;-53
2023/06/20 00:57:15;;;;;;;;;1.00;1.00;;;;;24.10;63.09;100427.28;2089175;28;45610;-51
2023/06/20 00:58:15;;;;;;;;;0.75;0.75;;;;;24.08;62.63;100422.00;2089326;28;46045;-55
2023/06/20 00:59:16;;;;;;;;;2.67;1.67;;;;;24.08;62.84;100416.56;2088660;28;47752;-55
2023/06/20 01:00:17;;;;;;;;;2.00;2.00;;;;;24.10;62.65;100418.28;2088590;28;46103;-54
2023/06/20 01:01:17;;;;;;;;;3.00;2.00;;;;;24.11;62.89;100425.44;2096842;28;46167;-52
2023/06/20 01:02:17;;;;;;;;;0.00;0.00;;;;;24.10;62.84;100423.72;2096580;28;46531;-52
2023/06/20 01:03:18;;;;;;;;;0.33;0.33;;;;;24.08;62.76;100419.28;2081595;28;45697;-52
2023/06/20 01:04:20;;;;;;;;;3.00;3.00;;;;;24.08;62.75;100415.72;2089132;28;46280;-52
2023/06/20 01:05:26;;;;;;;;;1.50;1.50;;;;;24.07;62.70;100414.00;2091882;28;46081;-53
2023/06/20 01:06:34;;;;;;;;;2.00;0.75;;;;;24.07;62.93;100416.72;2093501;28;45809;-51
2023/06/20 01:07:57;;;;;;;;;2.75;1.50;;;;;24.08;62.80;100421.13;2089489;28;46073;-55
2023/06/20 01:09:16;;;;;;;;;1.25;1.25;;;;;24.09;63.00;100417.44;2088841;28;46614;-51
2023/06/20 01:10:34;;;;;;;;;2.50;1.00;;;;;24.10;63.21;100416.44;2093736;28;46623;-53
2023/06/20 01:12:02;;;;;;;;;1.00;1.00;;;;;24.10;63.08;100427.28;2089576;28;45822;-55
2023/06/20 01:13:12;;;;;;;;;2.00;2.00;;;;;24.09;63.05;100428.28;2094293;28;46030;-52
2023/06/20 01:14:41;;;;;;;;;2.00;2.00;;;;;24.09;62.99;100422.84;2088583;28;46853;-53
2023/06/20 01:15:59;;;;;;;;;1.75;1.75;;;;;24.08;63.18;100427.41;2088927;28;46446;-54
2023/06/20 01:17:26;;;;;;;;;2.25;1.25;;;;;24.08;62.96;100427.41;2085786;28;46958;-55
2023/06/20 01:18:43;;;;;;;;;1.00;1.00;;;;;24.09;63.20;100417.44;2067382;28;45871;-53
2023/06/20 01:20:10;;;;;;;;;2.00;2.00;;;;;24.10;63.20;100418.28;2073182;28;46735;-52
2023/06/20 01:21:19;;;;;;;;;3.00;3.00;;;;;24.08;63.13;100419.28;2075919;28;46202;-53
2023/06/20 01:22:38;;;;;;;;;1.50;1.25;;;;;24.09;63.29;100425.56;2072586;28;45213;-54
2023/06/20 01:23:52;;;;;;;;;1.50;1.25;;;;;24.09;63.09;100425.56;2072633;28;46096;-53
2023/06/20 01:24:58;;;;;;;;;3.00;2.00;;;;;24.08;63.06;100424.72;2068093;28;45713;-52
2023/06/20 01:26:04;;;;;;;;;3.00;1.50;;;;;24.09;63.33;100428.28;2072461;28;46662;-54
2023/06/20 01:27:15;;;;;;;;;1.00;1.00;;;;;24.08;63.27;100422.00;2071423;28;45848;-51
2023/06/20 01:28:24;;;;;;;;;2.75;0.00;;;;;24.10;63.30;100426.44;2079938;28;45786;-53
2023/06/20 01:30:12;;;;;;;;;4.00;4.00;;;;;24.09;63.43;100428.28;2078260;28;46335;-54
2023/06/20 01:31:16;;;;;;;;;3.00;2.00;;;;;24.10;63.26;100421.00;2079232;28;46065;-52
2023/06/20 01:32:21;;;;;;;;;2.25;1.00;;;;;24.10;63.70;100415.59;2079648;28;46820;-54
2023/06/20 01:33:34;;;;;;;;;2.25;2.25;;;;;24.09;63.15;100409.31;2079465;28;46132;-55
2023/06/20 01:34:50;;;;;;;;;2.25;2.25;;;;;24.08;63.53;100413.88;2074865;28;46486;-55
2023/06/20 01:35:51;;;;;;;;;4.50;2.50;;;;;24.08;63.64;100413.88;2079407;28;47719;-53
2023/06/20 01:36:55;;;;;;;;;1.00;1.00;;;;;24.08;63.23;100405.72;2078269;28;45237;-52
2023/06/20 01:38:00;;;;;;;;;1.00;1.00;;;;;24.07;63.73;100412.16;2077148;28;45617;-54
2023/06/20 01:39:07;;;;;;;;;2.75;2.00;;;;;24.08;63.62;100404.88;2079050;28;46898;-51
2023/06/20 01:40:10;;;;;;;;;2.25;1.50;;;;;24.06;63.87;100405.00;2078975;28;46460;-53
2023/06/20 01:41:14;;;;;;;;;1.25;1.25;;;;;24.05;63.82;100400.56;2079586;28;45353;-54
2023/06/20 01:42:16;;;;;;;;;1.50;1.50;;;;;24.05;63.63;100402.44;2078465;28;45727;-54
2023/06/20 01:43:20;;;;;;;;;1.25;1.25;;;;;24.05;63.71;100402.44;2079900;28;46150;-53
2023/06/20 01:44:21;;;;;;;;;3.00;1.50;;;;;24.03;64.07;100402.56;2071124;28;45768;-53
2023/06/20 01:45:23;;;;;;;;;2.00;2.00;;;;;24.02;63.81;100397.25;2071798;28;46160;-52
2023/06/20 01:46:25;;;;;;;;;2.75;1.75;;;;;24.02;63.93;100399.97;2071317;28;46641;-52
2023/06/20 01:47:27;;;;;;;;;1.50;1.50;;;;;24.02;64.13;100406.25;2070390;28;46162;-53
2023/06/20 01:48:31;;;;;;;;;4.75;2.00;;;;;24.01;63.62;100411.78;2071183;28;46043;-54
2023/06/20 01:49:33;;;;;;;;;1.25;0.00;;;;;23.98;63.96;100412.03;2073063;28;45178;-54
2023/06/20 01:50:34;;;;;;;;;4.50;3.00;;;;;23.96;64.05;100406.75;2069927;28;46472;-54
2023/06/20 01:51:35;;;;;;;;;2.50;2.50;;;;;23.97;63.99;100411.19;2062850;28;46669;-53
2023/06/20 01:52:37;;;;;;;;;2.00;2.00;;;;;23.97;63.92;100411.19;2071496;28;45982;-53
2023/06/20 01:53:39;;;;;;;;;3.00;2.00;;;;;24.00;63.93;100413.63;2075403;28;46214;-53
2023/06/20 01:54:46;;;;;;;;;3.25;2.50;;;;;24.01;64.10;100425.34;2075868;28;45298;-54
2023/06/20 01:55:48;;;;;;;;;2.00;2.00;;;;;24.00;64.11;100410.06;2079537;28;45838;-55
2023/06/20 01:56:50;;;;;;;;;1.25;1.25;;;;;23.98;64.18;100410.19;2070232;28;46089;-53
2023/06/20 01:57:54;;;;;;;;;6.50;2.50;;;;;23.95;64.21;100404.16;2071129;28;46880;-54
2023/06/20 01:58:56;;;;;;;;;4.00;2.25;;;;;23.93;63.95;100412.44;2071414;28;45476;-53
2023/06/20 01:59:58;;;;;;;;;2.25;2.00;;;;;23.93;63.83;100419.69;2069131;28;45673;-53
2023/06/20 02:01:01;;;;;;;;;4.00;2.50;;;;;23.93;63.96;100414.28;2069741;28;46742;-55
2023/06/20 02:02:02;;;;;;;;;1.50;1.50;;;;;23.91;63.87;100418.97;2063068;28;46139;-57
2023/06/20 02:03:04;;;;;;;;;1.00;1.00;;;;;23.91;64.25;100425.25;2062961;28;46378;-53
2023/06/20 02:04:05;;;;;;;;;3.50;3.00;;;;;23.91;64.55;100419.81;2063227;28;46157;-53
2023/06/20 02:05:09;;;;;;;;;2.00;2.00;;;;;23.91;64.02;100425.25;2059512;28;45705;-53
2023/06/20 02:06:11;;;;;;;;;2.50;1.50;;;;;23.91;64.12;100425.25;2070551;28;46398;-54
2023/06/20 02:07:12;;;;;;;;;1.25;1.25;;;;;23.91;64.27;100424.38;2071274;28;45931;-53
2023/06/20 02:08:15;;;;;;;;;2.50;2.50;;;;;23.91;64.38;100414.41;2082406;28;46389;-54
2023/06/20 02:09:16;;;;;;;;;2.00;2.00;;;;;23.90;63.97;100407.25;2088857;28;45721;-53
2023/06/20 02:10:18;;;;;;;;;2.50;2.50;;;;;23.91;64.06;100410.84;2088849;28;45185;-51
2023/06/20 02:11:21;;;;;;;;;2.00;2.00;;;;;23.91;64.20;100418.97;2087858;28;46313;-53
2023/06/20 02:12:21;;;;;;;;;1.25;1.00;;;;;23.92;64.23;100410.72;2088621;28;48063;-52
2023/06/20 02:13:23;;;;;;;;;3.00;3.00;;;;;23.93;64.19;100409.72;2088309;28;45771;-52
2023/06/20 02:14:25;;;;;;;;;3.00;2.25;;;;;23.95;64.30;100415.88;2088745;28;46426;-53
2023/06/20 02:15:28;;;;;;;;;1.75;1.75;;;;;23.95;64.38;100405.03;2088605;28;46401;-52
2023/06/20 02:16:30;;;;;;;;;2.75;1.50;;;;;23.94;63.78;100407.88;2088686;28;46902;-55
2023/06/20 02:17:31;;;;;;;;;1.25;1.25;;;;;23.93;64.22;100408.84;2088653;28;46932;-53
2023/06/20 02:18:32;;;;;;;;;3.00;2.00;;;;;23.91;64.10;100416.25;2088195;28;46099;-54
2023/06/20 02:19:32;;;;;;;;;1.25;1.25;;;;;23.91;63.83;100414.41;2088655;28;46492;-54
2023/06/20 02:20:33;;;;;;;;;5.67;2.67;;;;;23.92;64.41;100409.84;2088540;28;45803;-57
2023/06/20 02:21:39;;;;;;;;;1.25;1.25;;;;;23.92;64.18;100407.13;2088368;28;46235;-54
2023/06/20 02:22:46;;;;;;;;;2.75;2.75;;;;;23.91;64.16;100410.84;2088721;28;46132;-54
2023/06/20 02:23:50;;;;;;;;;1.25;1.25;;;;;23.89;64.47;100407.41;2087311;28;46359;-54
2023/06/20 02:24:51;;;;;;;;;2.00;2.00;;;;;23.88;64.33;100403.78;2088428;28;45875;-53
2023/06/20 02:25:56;;;;;;;;;4.00;4.00;;;;;23.88;64.38;100406.50;2089159;28;45870;-52
2023/06/20 02:26:59;;;;;;;;;2.75;2.75;;;;;23.87;64.71;100396.66;2087758;28;45546;-53
2023/06/20 02:28:02;;;;;;;;;3.00;2.50;;;;;23.88;64.55;100394.81;2086785;28;45976;-61
2023/06/20 02:29:07;;;;;;;;;3.25;2.25;;;;;23.88;64.75;100400.22;2096454;28;46081;-61
2023/06/20 02:30:10;;;;;;;;;3.50;3.00;;;;;23.86;64.68;100391.38;2087389;28;47103;-61
2023/06/20 02:31:16;;;;;;;;;1.50;1.50;;;;;23.83;64.89;100388.91;2085817;28;46859;-61
2023/06/20 02:32:19;;;;;;;;;2.75;2.00;;;;;23.82;64.65;100395.31;2088591;28;46845;-61
2023/06/20 02:33:21;;;;;;;;;3.00;3.00;;;;;23.81;65.05;100389.03;2087310;28;47392;-62
2023/06/20 02:34:23;;;;;;;;;3.00;2.75;;;;;23.79;64.95;100385.59;2092201;28;46452;-61
2023/06/20 02:35:24;;;;;;;;;3.00;3.00;;;;;23.78;65.01;100384.75;2088341;28;45972;-62
2023/06/20 02:36:28;;;;;;;;;2.50;2.50;;;;;23.77;64.98;100382.16;2088228;28;46312;-60
2023/06/20 02:37:33;;;;;;;;;1.75;1.75;;;;;23.75;65.12;100387.69;2093537;28;46854;-61
2023/06/20 02:38:33;;;;;;;;;3.50;2.00;;;;;23.73;64.94;100381.53;2087759;28;46695;-62
2023/06/20 02:39:33;;;;;;;;;2.00;2.00;;;;;23.71;65.17;100379.94;2095436;28;45894;-62
2023/06/20 02:40:36;;;;;;;;;3.00;2.67;;;;;23.71;65.08;100382.66;2096134;28;45854;-62
2023/06/20 02:41:36;;;;;;;;;3.75;3.00;;;;;23.69;65.20;100379.22;2096221;28;45803;-60
2023/06/20 02:42:36;;;;;;;;;2.67;2.67;;;;;23.68;65.41;100382.91;2095595;28;45931;-61
2023/06/20 02:43:37;;;;;;;;;3.67;2.00;;;;;23.66;65.23;100379.47;2093947;28;46375;-61
2023/06/20 02:44:37;;;;;;;;;2.33;2.33;;;;;23.65;65.18;100375.03;2094946;28;45442;-60
2023/06/20 02:45:38;;;;;;;;;2.33;2.00;;;;;23.65;65.24;100383.16;2094461;28;45749;-62
2023/06/20 02:46:53;;;;;;;;;2.00;2.00;;;;;23.64;65.33;100382.31;2094796;28;46277;-61
2023/06/20 02:48:11;;;;;;;;;2.50;2.50;;;;;23.63;65.16;100386.00;2094058;28;46434;-59
2023/06/20 02:49:35;;;;;;;;;4.00;4.00;;;;;23.63;65.22;100391.41;2094630;28;45931;-61
2023/06/20 02:51:05;;;;;;;;;4.00;1.75;;;;;23.65;65.49;100388.59;2094070;28;45725;-62
2023/06/20 02:52:21;;;;;;;;;3.00;3.00;;;;;23.64;65.65;100386.88;2093889;28;46882;-61
2023/06/20 02:53:37;;;;;;;;;2.00;2.00;;;;;23.62;65.54;100381.53;2094193;28;46408;-62
2023/06/20 02:55:07;;;;;;;;;4.00;3.50;;;;;23.61;65.48;100387.09;2094107;28;46961;-61
2023/06/20 02:56:12;;;;;;;;;3.00;2.25;;;;;23.59;65.72;100383.66;2072839;28;46495;-61
2023/06/20 02:57:18;;;;;;;;;2.00;2.00;;;;;23.58;65.63;100382.78;2056843;28;46378;-61
2023/06/20 02:58:21;;;;;;;;;2.50;2.00;;;;;23.59;65.70;100389.94;2058422;28;45746;-63
2023/06/20 02:59:27;;;;;;;;;3.75;3.75;;;;;23.60;65.38;100388.94;2073111;28;45586;-61
2023/06/20 03:00:29;;;;;;;;;2.25;2.25;;;;;23.60;65.76;100390.78;2073110;28;46451;-61
2023/06/20 03:01:32;;;;;;;;;2.00;2.00;;;;;23.59;65.74;100387.22;2072334;28;46104;-60
2023/06/20 03:02:33;;;;;;;;;5.00;3.00;;;;;23.59;65.49;100389.06;2071411;28;46033;-60
2023/06/20 03:03:43;;;;;;;;;2.50;2.50;;;;;23.59;65.85;100389.06;2073273;28;46631;-62
2023/06/20 03:04:47;;;;;;;;;3.75;2.50;;;;;23.57;65.77;100375.63;2073121;28;46853;-61
2023/06/20 03:05:50;;;;;;;;;4.50;4.50;;;;;23.57;65.59;100383.75;2073999;28;46664;-62
2023/06/20 03:06:52;;;;;;;;;4.25;4.25;;;;;23.57;65.83;100386.44;2075648;28;45894;-60
2023/06/20 03:07:54;;;;;;;;;2.25;2.25;;;;;23.56;65.77;100387.44;2073656;28;46507;-62
2023/06/20 03:08:59;;;;;;;;;2.00;2.00;;;;;23.56;65.69;100389.28;2072872;28;46086;-61
2023/06/20 03:10:03;;;;;;;;;2.75;2.75;;;;;23.57;65.69;100386.44;2075120;28;45787;-58
2023/06/20 03:11:04;;;;;;;;;4.75;2.75;;;;;23.58;65.58;100382.78;2072525;28;46703;-59
2023/06/20 03:12:05;;;;;;;;;2.67;2.67;;;;;23.61;65.70;100387.94;2073001;28;45670;-61
2023/06/20 03:13:06;;;;;;;;;4.00;4.00;;;;;23.60;65.74;100385.38;2073281;28;46672;-59
2023/06/20 03:14:12;;;;;;;;;5.00;3.00;;;;;23.59;65.82;100370.97;2072992;28;45546;-60
2023/06/20 03:15:12;;;;;;;;;4.00;4.00;;;;;23.59;66.08;100372.81;2073893;28;45965;-60
2023/06/20 03:16:12;;;;;;;;;3.67;3.67;;;;;23.59;65.73;100372.81;2073676;28;45557;-60
2023/06/20 03:17:13;;;;;;;;;3.00;3.00;;;;;23.58;65.63;100381.94;2074565;28;45687;-61
2023/06/20 03:18:13;;;;;;;;;4.00;3.00;;;;;23.56;65.53;100371.19;2074138;28;45360;-60
2023/06/20 03:19:14;;;;;;;;;2.67;2.67;;;;;23.54;65.82;100364.19;2072383;28;46385;-59
2023/06/20 03:20:14;;;;;;;;;4.00;3.00;;;;;23.54;66.07;100375.88;2073843;28;46284;-61
2023/06/20 03:21:15;;;;;;;;;4.00;4.00;;;;;23.52;65.96;100377.00;2073331;28;45749;-59
2023/06/20 03:22:15;;;;;;;;;6.33;5.00;;;;;23.50;65.73;100368.97;2072902;28;46600;-61
2023/06/20 03:23:16;;;;;;;;;5.00;5.00;;;;;23.48;66.02;100377.22;2065103;28;45628;-59
2023/06/20 03:24:16;;;;;;;;;3.25;1.25;;;;;23.48;66.11;100370.94;2065015;28;46522;-61
2023/06/20 03:25:17;;;;;;;;;4.25;4.00;;;;;23.47;66.06;100374.63;2073002;28;46065;-59
2023/06/20 03:26:17;;;;;;;;;6.33;5.00;;;;;23.45;66.20;100379.31;2072952;28;46772;-60
2023/06/20 03:27:17;;;;;;;;;2.67;2.67;;;;;23.42;66.18;100372.31;2074221;28;45525;-60
2023/06/20 03:28:18;;;;;;;;;3.00;3.00;;;;;23.42;66.32;100371.44;2073628;28;45827;-59
2023/06/20 03:29:18;;;;;;;;;2.00;2.00;;;;;23.40;66.15;100370.72;2065165;28;45761;-59
2023/06/20 03:30:19;;;;;;;;;3.00;3.00;;;;;23.42;66.11;100375.00;2065442;28;45820;-60
2023/06/20 03:31:19;;;;;;;;;2.67;2.67;;;;;23.43;66.41;100378.59;2064539;28;45983;-62
2023/06/20 03:32:19;;;;;;;;;3.50;3.50;;;;;23.42;66.39;100375.00;2065741;28;45705;-60
2023/06/20 03:33:20;;;;;;;;;3.00;3.00;;;;;23.42;66.16;100372.31;2074474;28;45995;-62
2023/06/20 03:34:20;;;;;;;;;3.00;3.00;;;;;23.41;66.09;100378.72;2086884;28;45105;-61
2023/06/20 03:35:20;;;;;;;;;4.67;4.00;;;;;23.43;66.21;100371.31;2086845;28;45037;-60
2023/06/20 03:36:21;;;;;;;;;2.33;1.00;;;;;23.43;66.17;100374.03;2086251;28;45578;-61
2023/06/20 03:37:21;;;;;;;;;2.75;2.75;;;;;23.45;66.14;100368.47;2085904;28;45995;-62
2023/06/20 03:38:21;;;;;;;;;6.00;6.00;;;;;23.44;66.04;100364.06;2086128;28;46300;-62
2023/06/20 03:39:22;;;;;;;;;4.00;3.00;;;;;23.43;66.13;100357.78;2086356;28;45631;-60
2023/06/20 03:40:22;;;;;;;;;4.00;4.00;;;;;23.44;66.01;100354.09;2086999;28;46302;-60
2023/06/20 03:41:23;;;;;;;;;4.00;2.00;;;;;23.44;66.14;100348.66;2086389;28;46325;-59
2023/06/20 03:42:23;;;;;;;;;5.00;4.00;;;;;23.47;66.27;100358.38;2087013;28;45224;-60
2023/06/20 03:43:23;;;;;;;;;3.00;3.00;;;;;23.48;66.03;100354.69;2086283;28;45587;-60
2023/06/20 03:44:24;;;;;;;;;3.00;3.00;;;;;23.51;66.08;100356.31;2087018;28;46657;-60
2023/06/20 03:45:24;;;;;;;;;2.33;2.33;;;;;23.51;66.23;100357.16;2086568;28;46327;-60
2023/06/20 03:46:24;;;;;;;;;9.00;6.00;;;;;23.51;66.15;100351.75;2087829;28;46634;-60
2023/06/20 03:47:25;;;;;;;;;4.00;4.00;;;;;23.50;66.10;100360.84;2087415;28;45960;-60
2023/06/20 03:48:25;;;;;;;;;4.00;4.00;;;;;23.48;65.83;100357.38;2086943;28;45920;-60
2023/06/20 03:49:26;;;;;;;;;5.50;4.75;;;;;23.47;66.04;100371.91;2087280;28;45518;-60
2023/06/20 03:50:26;;;;;;;;;6.50;5.50;;;;;23.46;66.13;100368.34;2086664;28;46113;-60
2023/06/20 03:51:26;;;;;;;;;3.33;3.33;;;;;23.45;66.00;100369.34;2086608;28;46585;-59
2023/06/20 03:52:27;;;;;;;;;4.67;4.00;;;;;23.45;66.07;100371.19;2086942;28;46337;-62
2023/06/20 03:53:27;;;;;;;;;4.00;4.00;;;;;23.44;66.26;100370.34;2086646;28;46648;-60
2023/06/20 03:54:28;;;;;;;;;3.00;3.00;;;;;23.44;65.92;100361.34;2087254;28;46148;-62
2023/06/20 03:55:28;;;;;;;;;4.00;4.00;;;;;23.45;66.30;100365.78;2086570;28;45911;-62
2023/06/20 03:56:28;;;;;;;;;3.67;3.00;;;;;23.44;66.32;100366.75;2087399;28;45815;-60
2023/06/20 03:57:29;;;;;;;;;3.00;3.00;;;;;23.43;66.44;100356.91;2087439;28;45967;-61
2023/06/20 03:58:29;;;;;;;;;6.33;5.00;;;;;23.43;66.40;100356.91;2086293;28;46399;-62
2023/06/20 03:59:29;;;;;;;;;3.00;3.00;;;;;23.42;66.37;100350.66;2087326;28;45068;-62
2023/06/20 04:00:30;;;;;;;;;5.00;4.00;;;;;23.43;66.36;100356.91;2086593;28;46306;-62
2023/06/20 04:01:30;;;;;;;;;5.00;5.00;;;;;23.41;66.00;100354.34;2085890;28;44985;-60
2023/06/20 04:02:31;;;;;;;;;3.00;3.00;;;;;23.42;66.37;100349.78;2087743;28;45481;-61
2023/06/20 04:03:32;;;;;;;;;3.75;3.75;;;;;23.43;66.21;100357.78;2087083;28;45931;-61
2023/06/20 04:04:32;;;;;;;;;6.00;4.67;;;;;23.44;66.44;100358.63;2087067;28;46232;-60
2023/06/20 04:05:33;;;;;;;;;3.33;3.33;;;;;23.42;66.34;100361.47;2087182;28;46486;-60
2023/06/20 04:06:33;;;;;;;;;3.67;3.67;;;;;23.41;66.40;100359.75;2087053;28;45748;-60
2023/06/20 04:07:33;;;;;;;;;5.00;4.33;;;;;23.40;66.43;100358.03;2077461;28;46652;-61
2023/06/20 04:08:35;;;;;;;;;4.33;4.00;;;;;23.41;66.43;100361.59;2086511;28;46461;-62
2023/06/20 04:09:35;;;;;;;;;4.50;4.50;;;;;23.43;66.47;100362.34;2086910;28;45618;-60
2023/06/20 04:10:37;;;;;;;;;5.33;4.00;;;;;23.42;66.41;100355.19;2086860;28;45776;-61
2023/06/20 04:11:37;;;;;;;;;6.50;4.75;;;;;23.42;66.39;100347.94;2086603;28;46741;-62
2023/06/20 04:12:39;;;;;;;;;4.00;3.33;;;;;23.42;66.33;100356.06;2087131;28;45596;-61
2023/06/20 04:13:39;;;;;;;;;3.50;3.00;;;;;23.43;66.36;100359.63;2086029;28;45979;-59
2023/06/20 04:14:40;;;;;;;;;5.00;5.00;;;;;23.43;66.38;100349.66;2087161;28;45991;-61
2023/06/20 04:15:40;;;;;;;;;5.00;5.00;;;;;23.43;66.37;100348.78;2086759;28;46088;-61
2023/06/20 04:16:41;;;;;;;;;6.00;4.33;;;;;23.44;66.52;100347.81;2087007;28;45512;-60
2023/06/20 04:17:41;;;;;;;;;3.67;3.00;;;;;23.46;66.41;100357.53;2086563;28;46443;-61
2023/06/20 04:18:41;;;;;;;;;3.00;3.00;;;;;23.47;66.26;100352.97;2086936;28;45598;-60
2023/06/20 04:19:42;;;;;;;;;3.00;3.00;;;;;23.48;66.20;100355.53;2086603;28;45900;-61
2023/06/20 04:20:42;;;;;;;;;4.00;3.00;;;;;23.51;66.22;100356.31;2087306;28;45543;-62
2023/06/20 04:21:43;;;;;;;;;4.67;4.00;;;;;23.52;66.21;100358.88;2087084;28;47883;-61
2023/06/20 04:22:46;;;;;;;;;4.50;4.50;;;;;23.51;66.06;100357.16;2086787;28;46297;-61
2023/06/20 04:23:46;;;;;;;;;3.25;3.25;;;;;23.52;66.51;100361.59;2085928;28;46566;-62
2023/06/20 04:24:49;;;;;;;;;6.00;4.33;;;;;23.54;66.15;100361.47;2086675;28;46245;-61
2023/06/20 04:25:49;;;;;;;;;4.25;4.00;;;;;23.54;66.08;100362.34;2085940;28;46165;-61
2023/06/20 04:26:50;;;;;;;;;7.67;5.00;;;;;23.54;66.14;100365.03;2085862;28;46105;-61
2023/06/20 04:27:53;;;;;;;;;6.33;5.33;;;;;23.51;66.16;100365.28;2086124;28;45518;-60
2023/06/20 04:28:54;;;;;;;;;4.75;4.25;;;;;23.49;66.13;100359.97;2086712;28;46835;-61
2023/06/20 04:29:57;;;;;;;;;4.33;3.00;;;;;23.48;66.14;100365.53;2086741;28;46178;-60
2023/06/20 04:30:59;;;;;;;;;5.33;4.33;;;;;23.46;66.34;100362.06;2086628;28;46180;-62
2023/06/20 04:32:00;;;;;;;;;4.50;4.50;;;;;23.44;66.30;100362.22;2086221;28;46800;-61
2023/06/20 04:33:01;;;;;;;;;5.67;5.67;;;;;23.43;65.99;100365.91;2087032;28;46023;-61
2023/06/20 04:34:01;;;;;;;;;3.00;3.00;;;;;23.43;66.07;100360.50;2085789;28;45483;-61
2023/06/20 04:35:01;;;;;;;;;4.00;4.00;;;;;23.43;66.24;100368.63;2085648;28;46576;-61
2023/06/20 04:36:02;;;;;;;;;3.00;3.00;;;;;23.42;66.25;100368.75;2086597;28;45473;-62
2023/06/20 04:37:02;;;;;;;;;5.33;4.00;;;;;23.41;66.28;100367.88;2086264;28;46823;-61
2023/06/20 04:38:03;;;;;;;;;4.67;3.33;;;;;23.39;66.40;100364.44;2085837;28;45777;-61
2023/06/20 04:39:04;;;;;;;;;3.00;3.00;;;;;23.38;66.46;100367.28;2086857;28;45637;-61
2023/06/20 04:40:07;;;;;;;;;3.00;3.00;;;;;23.37;66.53;100371.78;2086015;28;46575;-61
2023/06/20 04:41:08;;;;;;;;;3.25;3.00;;;;;23.37;66.20;100369.09;2086154;28;45095;-59
2023/06/20 04:42:08;;;;;;;;;4.00;4.00;;;;;23.37;66.47;100370.94;2086630;28;46051;-59
2023/06/20 04:43:09;;;;;;;;;3.33;3.00;;;;;23.37;66.36;100368.22;2085952;28;46124;-60
2023/06/20 04:44:09;;;;;;;;;3.00;3.00;;;;;23.37;66.53;100368.22;2077744;28;46433;-62
2023/06/20 04:45:10;;;;;;;;;4.33;4.33;;;;;23.38;66.30;100368.13;2086081;28;44984;-61
2023/06/20 04:46:15;;;;;;;;;4.67;4.67;;;;;23.36;66.35;100369.22;2086335;28;46950;-61
2023/06/20 04:47:16;;;;;;;;;6.50;5.25;;;;;23.36;66.60;100361.09;2086411;28;46068;-61
2023/06/20 04:48:16;;;;;;;;;5.00;5.00;;;;;23.34;66.56;100358.50;2087255;28;45955;-60
2023/06/20 04:49:16;;;;;;;;;4.33;4.33;;;;;23.33;66.28;100356.78;2087267;28;45856;-60
2023/06/20 04:50:17;;;;;;;;;5.00;4.00;;;;;23.34;66.40;100360.34;2086796;28;46182;-61
2023/06/20 04:51:17;;;;;;;;;5.00;5.00;;;;;23.34;66.75;100354.94;2087581;28;46103;-60
2023/06/20 04:52:18;;;;;;;;;4.33;4.00;;;;;23.35;66.46;100357.53;2088311;28;45792;-61
2023/06/20 04:53:19;;;;;;;;;3.33;3.33;;;;;23.34;66.59;100350.38;2087566;28;45911;-59